Time;durP1;ratioP1;P1;durP2;ratioP2;P2;SDS_P1;SDS_P2;PMS_P1;PMS_P2;Temp;Humidity;BMP_temperature;BMP_pressure;BME280_temperature;BME280_humidity;BME280_pressure;Samples;Min_cycle;Max_cycle;Signal;HPM_P1;HPM_P2
2022/06/11 00:01:37;;;;;;;2.90;2.30;;;;;;;15.09;100.00;90398.28;5053237;28;20526;-66
2022/06/11 00:04:08;;;;;;;2.20;2.00;;;;;;;15.05;100.00;90399.34;5053154;28;20033;-67
2022/06/11 00:06:41;;;;;;;4.90;2.20;;;;;;;14.99;100.00;90401.53;5052888;28;20040;-67
2022/06/11 00:09:07;;;;;;;2.33;2.00;;;;;;;14.89;100.00;90397.47;5053174;28;20095;-67
2022/06/11 00:11:33;;;;;;;2.53;1.80;;;;;;;14.81;100.00;90395.72;5051864;28;20049;-67
2022/06/11 00:13:59;;;;;;;2.90;2.05;;;;;;;14.79;100.00;90397.97;5052929;28;20140;-67
2022/06/11 00:16:25;;;;;;;2.35;1.90;;;;;;;14.77;100.00;90400.22;5051657;28;20422;-67
2022/06/11 00:18:56;;;;;;;2.88;2.17;;;;;;;14.80;100.00;90393.41;5052883;28;20041;-68
2022/06/11 00:21:24;;;;;;;5.70;2.28;;;;;;;14.78;100.00;90392.97;5052829;28;20048;-68
2022/06/11 00:23:50;;;;;;;3.40;2.00;;;;;;;14.82;100.00;90388.47;5052932;28;20048;-68
2022/06/11 00:26:16;;;;;;;3.30;2.22;;;;;;;14.87;100.00;90385.53;5052692;28;20044;-67
2022/06/11 00:28:41;;;;;;;2.30;1.83;;;;;;;14.81;100.00;90389.59;5052879;28;20045;-68
2022/06/11 00:31:07;;;;;;;4.47;2.33;;;;;;;14.71;100.00;90380.19;5052684;28;20552;-67
2022/06/11 00:33:35;;;;;;;2.50;2.10;;;;;;;14.73;100.00;90383.31;5052550;28;20048;-67
2022/06/11 00:36:01;;;;;;;4.35;2.90;;;;;;;14.64;100.00;90383.47;5052619;28;20120;-67
2022/06/11 00:38:27;;;;;;;3.80;2.72;;;;;;;14.57;100.00;90380.63;5052551;28;20601;-66
2022/06/11 00:40:53;;;;;;;6.80;2.50;;;;;;;14.62;100.00;90387.63;5052531;28;20036;-67
2022/06/11 00:43:23;;;;;;;3.10;2.22;;;;;;;14.56;100.00;90375.63;5052428;28;20037;-67
2022/06/11 00:46:20;;;;;;;2.22;1.67;;;;;;;14.57;100.00;90377.19;5052428;28;20055;-67
2022/06/11 00:48:46;;;;;;;4.10;2.17;;;;;;;14.64;100.00;90386.16;5052360;28;20041;-67
2022/06/11 00:51:20;;;;;;;3.28;2.35;;;;;;;14.62;100.00;90387.63;5052543;28;20047;-67
2022/06/11 00:54:00;;;;;;;1.65;1.50;;;;;;;14.56;100.00;90376.41;5052393;28;20127;-68
2022/06/11 00:56:28;;;;;;;3.88;1.60;;;;;;;14.59;100.00;90380.28;5052614;28;20036;-68
2022/06/11 00:58:58;;;;;;;2.20;1.67;;;;;;;14.59;100.00;90380.28;5052329;28;20499;-68
2022/06/11 01:01:25;;;;;;;1.60;1.38;;;;;;;14.58;100.00;90374.16;5052393;28;20098;-68
2022/06/11 01:03:53;;;;;;;2.00;1.50;;;;;;;14.63;100.00;90381.91;5052188;28;20037;-68
2022/06/11 01:06:51;;;;;;;2.75;2.10;;;;;;;14.58;100.00;90386.75;5051925;28;20052;-68
2022/06/11 01:09:44;;;;;;;1.23;1.13;;;;;;;14.37;100.00;90373.63;5052160;28;20075;-68
2022/06/11 01:12:33;;;;;;;1.30;1.20;;;;;;;14.39;100.00;90382.84;5052034;28;20079;-68
2022/06/11 01:15:12;;;;;;;1.70;1.38;;;;;;;14.46;100.00;90386.84;5052015;28;20053;-68
2022/06/11 01:17:56;;;;;;;1.58;1.40;;;;;;;14.42;100.00;90380.59;5051991;28;20044;-68
2022/06/11 01:20:47;;;;;;;1.50;1.40;;;;;;;14.44;100.00;90379.16;5051949;28;20029;-69
2022/06/11 01:23:38;;;;;;;1.60;1.27;;;;;;;14.50;100.00;90380.44;5051642;28;20123;-68
2022/06/11 01:26:32;;;;;;;1.30;1.20;;;;;;;14.42;100.00;90378.69;5051811;28;20051;-68
2022/06/11 01:29:26;;;;;;;3.22;2.22;;;;;;;14.47;100.00;90375.78;5051790;28;20033;-69
2022/06/11 01:32:00;;;;;;;1.52;1.40;;;;;;;14.48;100.00;90374.66;5051685;28;20048;-68
2022/06/11 01:34:48;;;;;;;1.90;1.35;;;;;;;14.53;100.00;90379.00;5051928;28;20045;-68
2022/06/11 01:37:20;;;;;;;1.20;1.10;;;;;;;14.59;100.00;90372.25;5051666;28;20049;-69
2022/06/11 01:39:57;;;;;;;1.63;1.20;;;;;;;14.58;100.00;90365.34;5050299;28;20418;-69
2022/06/11 01:42:30;;;;;;;1.33;1.00;;;;;;;14.58;100.00;90386.75;5051401;28;20037;-68
2022/06/11 01:45:03;;;;;;;1.40;1.30;;;;;;;14.51;100.00;90381.22;5051522;28;20041;-68
2022/06/11 01:47:31;;;;;;;1.83;1.10;;;;;;;14.51;100.00;90382.00;5051453;28;20048;-68
2022/06/11 01:49:57;;;;;;;1.92;1.30;;;;;;;14.51;100.00;90376.63;5051730;28;20037;-68
2022/06/11 01:52:34;;;;;;;1.73;0.90;;;;;;;14.49;100.00;90381.56;5051277;28;20041;-69
2022/06/11 01:55:06;;;;;;;1.10;1.00;;;;;;;14.45;100.00;90382.59;5051393;28;20040;-69
2022/06/11 01:57:46;;;;;;;2.63;1.02;;;;;;;14.46;100.00;90376.91;5050059;28;20131;-69
2022/06/11 02:00:20;;;;;;;1.00;0.90;;;;;;;14.53;100.00;90374.44;5051307;28;20045;-69
2022/06/11 02:02:45;;;;;;;;;;;;;;;14.56;100.00;90378.31;5051603;28;20558;-70
2022/06/11 02:05:34;;;;;;;1.67;1.33;;;;;;;14.58;100.00;90381.41;5057813;28;19956;-68
2022/06/11 02:08:18;;;;;;;1.75;1.20;;;;;;;14.54;100.00;90386.69;5071162;28;20040;-68
2022/06/11 02:11:11;;;;;;;1.95;1.00;;;;;;;14.44;100.00;90373.81;5071160;28;20093;-68
2022/06/11 02:14:03;;;;;;;1.30;1.10;;;;;;;14.45;100.00;90377.25;5071173;28;20537;-69
2022/06/11 02:16:32;;;;;;;1.00;0.90;;;;;;;14.43;100.00;90380.25;5071132;28;20047;-69
2022/06/11 02:19:01;;;;;;;1.40;1.30;;;;;;;14.49;100.00;90388.81;5071169;28;20460;-69
2022/06/11 02:21:32;;;;;;;1.45;1.23;;;;;;;14.54;100.00;90383.22;5071191;28;20069;-68
2022/06/11 02:24:05;;;;;;;3.85;2.65;;;;;;;14.52;100.00;90391.59;5071298;28;20106;-69
2022/06/11 02:26:47;;;;;;;5.00;2.42;;;;;;;14.56;100.00;90389.00;5071010;28;20064;-69
2022/06/11 02:29:16;;;;;;;9.95;4.95;;;;;;;14.57;100.00;90391.34;5071138;28;20115;-68
2022/06/11 02:31:58;;;;;;;2.72;1.70;;;;;;;14.55;100.00;90398.94;5070775;28;20097;-69
2022/06/11 02:34:26;;;;;;;2.20;1.83;;;;;;;14.50;100.00;90393.81;5071756;28;20079;-69
2022/06/11 02:37:01;;;;;;;8.27;4.32;;;;;;;14.52;100.00;90388.94;5073815;28;20046;-69
2022/06/11 02:39:30;;;;;;;5.00;2.70;;;;;;;14.57;100.00;90402.03;5075321;28;20110;-68
2022/06/11 02:41:56;;;;;;;3.53;2.42;;;;;;;14.53;100.00;90400.41;5074897;28;20433;-68
2022/06/11 02:44:21;;;;;;;9.32;4.20;;;;;;;14.54;100.00;90402.75;5073568;28;20074;-68
2022/06/11 02:46:47;;;;;;;6.32;3.22;;;;;;;14.52;100.00;90399.63;5074786;28;20036;-68
2022/06/11 02:49:23;;;;;;;6.85;3.20;;;;;;;14.48;100.00;90404.09;5074857;28;20135;-68
2022/06/11 02:51:51;;;;;;;6.20;3.00;;;;;;;14.54;100.00;90402.75;5073397;28;20063;-67
2022/06/11 02:54:19;;;;;;;6.22;3.58;;;;;;;14.49;100.00;90405.66;5074696;28;20040;-68
2022/06/11 02:56:46;;;;;;;4.97;2.97;;;;;;;14.49;100.00;90410.22;5074750;28;20102;-68
2022/06/11 02:59:12;;;;;;;6.53;3.88;;;;;;;14.55;100.00;90409.66;5074665;28;20110;-68
2022/06/11 03:01:38;;;;;;;5.20;2.60;;;;;;;14.56;100.00;90416.56;5074566;28;20123;-68
2022/06/11 03:04:04;;;;;;;7.82;4.10;;;;;;;14.52;100.00;90413.03;5074496;28;20123;-68
2022/06/11 03:06:30;;;;;;;4.45;2.47;;;;;;;14.59;100.00;90418.53;5074248;28;20060;-68
2022/06/11 03:08:56;;;;;;;6.43;3.78;;;;;;;14.56;100.00;90418.47;5074417;28;20044;-68
2022/06/11 03:11:22;;;;;;;282.13;146.63;;;;;;;14.65;100.00;90414.47;5074389;28;20524;-68
2022/06/11 03:13:47;;;;;;;43.17;20.77;;;;;;;14.68;100.00;90413.81;5074279;28;20072;-69
2022/06/11 03:16:13;;;;;;;35.90;18.20;;;;;;;14.73;100.00;90414.66;5074280;28;20067;-68
2022/06/11 03:18:39;;;;;;;2.50;1.63;;;;;;;14.69;100.00;90406.53;5074221;28;20071;-68
2022/06/11 03:21:06;;;;;;;1.17;1.08;;;;;;;14.68;100.00;90413.81;5074242;28;20045;-68
2022/06/11 03:23:31;;;;;;;1.85;1.45;;;;;;;14.64;100.00;90412.91;5074097;28;20044;-68
2022/06/11 03:25:57;;;;;;;0.85;0.85;;;;;;;14.58;100.00;90413.53;5074081;28;20084;-68
2022/06/11 03:28:26;;;;;;;19.15;8.65;;;;;;;14.62;100.00;90414.38;5073880;28;20029;-68
2022/06/11 03:30:53;;;;;;;64.03;32.45;;;;;;;14.69;100.00;90406.53;5074027;28;20728;-68
2022/06/11 03:33:20;;;;;;;7.18;3.88;;;;;;;14.78;100.00;90417.06;5073900;28;20049;-68
2022/06/11 03:35:49;;;;;;;1.63;1.13;;;;;;;14.56;100.00;90413.09;5074229;28;20040;-69
2022/06/11 03:38:16;;;;;;;1.05;0.93;;;;;;;14.57;100.00;90420.00;5074187;28;20528;-68
2022/06/11 03:40:42;;;;;;;1.23;1.13;;;;;;;14.51;100.00;90416.78;5073836;28;20514;-68
2022/06/11 03:43:09;;;;;;;1.90;1.73;;;;;;;14.51;100.00;90424.81;5073712;28;20114;-69
2022/06/11 03:45:36;;;;;;;1.65;1.30;;;;;;;14.46;100.00;90419.72;5073583;28;20048;-69
2022/06/11 03:48:02;;;;;;;2.53;1.73;;;;;;;14.47;100.00;90428.53;5073650;28;20120;-69
2022/06/11 03:50:32;;;;;;;2.03;1.70;;;;;;;14.49;100.00;90427.06;5073633;28;20130;-69
2022/06/11 03:52:58;;;;;;;1.50;1.40;;;;;;;14.44;100.00;90421.97;5073491;28;20048;-68
2022/06/11 03:55:25;;;;;;;1.65;1.40;;;;;;;14.48;100.00;90420.16;5073653;28;20505;-68
2022/06/11 03:57:51;;;;;;;2.20;1.50;;;;;;;14.47;100.00;90429.31;5073561;28;20024;-68
2022/06/11 04:03:05;;;;;;;2.03;1.58;;;;;;;14.38;100.00;90431.34;5073661;28;20094;-68
2022/06/11 04:05:31;;;;;;;2.83;1.67;;;;;;;14.36;100.00;90423.69;5073437;28;20049;-68
2022/06/11 04:07:56;;;;;;;2.08;1.83;;;;;;;14.35;100.00;90426.66;5073340;28;20119;-68
2022/06/11 04:10:22;;;;;;;1.90;1.70;;;;;;;14.35;100.00;90432.03;5073330;28;20103;-68
2022/06/11 04:12:47;;;;;;;1.80;1.60;;;;;;;14.35;100.00;90432.03;5073232;28;20031;-68
2022/06/11 04:15:13;;;;;;;1.77;1.58;;;;;;;14.32;100.00;90444.19;5073232;28;20025;-68
2022/06/11 04:17:39;;;;;;;8.60;5.38;;;;;;;14.36;100.00;90437.06;5073227;28;20112;-69
2022/06/11 04:20:05;;;;;;;11.10;5.90;;;;;;;14.39;100.00;90422.22;5073188;28;20028;-68
2022/06/11 04:22:31;;;;;;;71.55;34.10;;;;;;;14.53;100.00;90440.56;5072872;28;20078;-68
2022/06/11 04:24:57;;;;;;;134.18;66.22;;;;;;;14.62;100.00;90436.56;5073095;28;20111;-68
2022/06/11 04:27:23;;;;;;;5.85;4.28;;;;;;;14.63;100.00;90445.38;5072921;28;20021;-68
2022/06/11 04:29:54;;;;;;;1.95;1.77;;;;;;;14.58;100.00;90442.97;5072816;28;20479;-68
2022/06/11 04:32:21;;;;;;;3.75;2.08;;;;;;;14.55;100.00;90444.44;5072630;28;20486;-68
2022/06/11 04:34:48;;;;;;;1.98;1.80;;;;;;;14.48;100.00;90440.78;5072607;28;20039;-68
2022/06/11 04:37:17;;;;;;;4.53;3.28;;;;;;;14.50;100.00;90442.00;5072599;28;20024;-68
2022/06/11 04:39:48;;;;;;;2.03;1.67;;;;;;;14.46;100.00;90448.38;5072603;28;20395;-68
2022/06/11 04:42:15;;;;;;;2.03;1.80;;;;;;;14.46;100.00;90465.22;5072428;28;20028;-68
2022/06/11 04:44:42;;;;;;;2.97;2.05;;;;;;;14.38;100.00;90463.47;5072421;28;20533;-68
2022/06/11 04:47:11;;;;;;;1.60;1.50;;;;;;;14.34;100.00;90467.94;5072357;28;20024;-68
2022/06/11 04:49:37;;;;;;;2.72;1.67;;;;;;;14.29;100.00;90460.16;5071114;28;20418;-68
2022/06/11 04:52:04;;;;;;;2.00;1.40;;;;;;;14.32;100.00;90459.47;5072316;28;20028;-68
2022/06/11 04:54:29;;;;;;;1.73;1.63;;;;;;;14.34;100.00;90467.94;5072137;28;20044;-68
2022/06/11 04:56:54;;;;;;;2.45;2.15;;;;;;;14.40;100.00;90471.94;5071498;28;20028;-68
2022/06/11 04:59:21;;;;;;;2.40;1.52;;;;;;;14.36;100.00;90476.41;5072110;28;20033;-69
2022/06/11 05:01:46;;;;;;;2.75;1.98;;;;;;;14.32;100.00;90470.16;5072138;28;20056;-68
2022/06/11 05:04:13;;;;;;;2.58;2.05;;;;;;;14.43;100.00;90479.28;5072034;28;20060;-68
2022/06/11 05:06:42;;;;;;;2.13;1.80;;;;;;;14.49;100.00;90483.28;5071764;28;20055;-68
2022/06/11 05:09:10;;;;;;;3.67;2.75;;;;;;;14.58;100.00;90478.56;5072013;28;20124;-68
2022/06/11 05:11:36;;;;;;;2.65;1.70;;;;;;;14.63;100.00;90475.59;5071841;28;20063;-68
2022/06/11 05:14:02;;;;;;;1.73;1.52;;;;;;;14.64;100.00;90490.56;5071869;28;20413;-68
2022/06/11 05:16:27;;;;;;;2.00;1.50;;;;;;;14.56;100.00;90478.13;5071769;28;20025;-68
2022/06/11 05:18:53;;;;;;;1.88;1.35;;;;;;;14.66;100.00;90488.31;5071507;28;20035;-69
2022/06/11 05:21:20;;;;;;;1.48;1.38;;;;;;;14.58;100.00;90483.91;5070407;28;20078;-69
2022/06/11 05:23:46;;;;;;;2.13;1.92;;;;;;;14.67;100.00;90486.41;5071572;28;20031;-69
2022/06/11 05:26:17;;;;;;;4.22;1.75;;;;;;;14.83;100.00;90483.75;5071436;28;20032;-67
2022/06/11 05:28:44;;;;;;;3.05;2.03;;;;;;;14.96;100.00;90477.97;5071147;28;20501;-67
2022/06/11 05:31:09;;;;;;;2.05;1.52;;;;;;;15.11;100.00;90487.13;5071379;28;20036;-67
2022/06/11 05:33:35;;;;;;;2.50;1.90;;;;;;;15.12;100.00;90486.00;5071399;28;20047;-67
2022/06/11 05:36:00;;;;;;;1.70;1.60;;;;;;;15.19;100.00;90490.75;5069954;28;20111;-69
2022/06/11 05:38:28;;;;;;;11.98;7.30;;;;;;;15.42;100.00;90488.22;5071128;28;20414;-68
2022/06/11 05:40:54;;;;;;;6.40;3.65;;;;;;;15.48;100.00;90478.81;5071293;28;20037;-69
2022/06/11 05:43:20;;;;;;;7.95;4.95;;;;;;;15.44;100.00;90492.09;5071046;28;20058;-68
2022/06/11 05:45:48;;;;;;;3.22;2.28;;;;;;;15.48;100.00;90492.22;5074197;28;20071;-68
2022/06/11 05:48:16;;;;;;;3.78;2.30;;;;;;;15.43;100.00;90506.63;5074914;28;20025;-67
2022/06/11 05:50:48;;;;;;;4.30;2.03;;;;;;;15.52;100.00;90506.47;5074104;28;20032;-67
2022/06/11 05:53:17;;;;;;;17.10;7.55;;;;;;;15.51;100.00;90502.22;5075429;28;20171;-67
2022/06/11 05:55:44;;;;;;;3.47;2.38;;;;;;;15.54;100.00;90520.31;5074157;28;20067;-67
2022/06/11 05:58:14;;;;;;;3.88;2.70;;;;;;;15.41;100.00;90505.44;5072890;28;20482;-68
2022/06/11 06:00:40;;;;;;;3.72;2.63;;;;;;;15.20;100.00;90513.75;5071513;28;20039;-67
2022/06/11 06:03:06;;;;;;;4.05;2.60;;;;;;;15.04;100.00;90521.00;5071258;28;20035;-68
2022/06/11 06:05:32;;;;;;;5.55;3.28;;;;;;;14.92;100.00;90524.53;5070947;28;20119;-68
2022/06/11 06:07:58;;;;;;;3.58;2.95;;;;;;;14.79;100.00;90526.50;5071300;28;20112;-68
2022/06/11 06:10:25;;;;;;;6.05;3.10;;;;;;;14.72;100.00;90537.03;5070850;28;20492;-67
2022/06/11 06:12:51;;;;;;;5.95;4.15;;;;;;;14.60;100.00;90529.84;5065789;28;20457;-68
2022/06/11 06:15:20;;;;;;;3.00;2.70;;;;;;;14.67;100.00;90538.06;5057182;28;20030;-67
2022/06/11 06:17:48;;;;;;;3.53;2.60;;;;;;;14.57;100.00;90527.84;5058387;28;20052;-69
2022/06/11 06:20:15;;;;;;;3.88;2.75;;;;;;;14.75;100.00;90538.25;5061073;28;20028;-68
2022/06/11 06:22:41;;;;;;;4.82;3.13;;;;;;;14.76;100.00;90539.81;5052920;28;20031;-70
2022/06/11 06:25:08;;;;;;;6.05;2.97;;;;;;;14.80;100.00;90536.09;5050605;28;20047;-69
2022/06/11 06:27:34;;;;;;;3.40;2.83;;;;;;;14.82;100.00;90549.13;5050224;28;20041;-69
2022/06/11 06:29:59;;;;;;;3.22;2.45;;;;;;;14.70;100.00;90541.19;5047030;28;20032;-71
2022/06/11 06:32:25;;;;;;;4.28;2.95;;;;;;;14.56;100.00;90531.66;5050436;28;20040;-71
2022/06/11 06:34:50;;;;;;;4.65;3.42;;;;;;;14.87;100.00;90548.91;5050473;28;20047;-71
2022/06/11 06:37:16;;;;;;;4.82;3.20;;;;;;;14.91;100.00;90558.59;5050387;28;20033;-72
2022/06/11 06:39:41;;;;;;;3.80;2.92;;;;;;;14.91;100.00;90557.81;5049979;28;20494;-71
2022/06/11 06:42:07;;;;;;;5.30;3.78;;;;;;;14.90;100.00;90548.22;5050160;28;20102;-72
2022/06/11 06:44:33;;;;;;;9.48;4.10;;;;;;;15.01;100.00;90562.66;5050372;28;20017;-71
2022/06/11 06:46:59;;;;;;;5.90;3.85;;;;;;;15.02;100.00;90558.09;5050244;28;20744;-72
2022/06/11 06:49:24;;;;;;;5.70;3.80;;;;;;;14.94;100.00;90557.09;5050341;28;20079;-71
2022/06/11 06:51:50;;;;;;;7.15;3.83;;;;;;;15.00;100.00;90555.75;5050341;28;20418;-72
2022/06/11 06:54:16;;;;;;;6.35;4.10;;;;;;;15.10;100.00;90568.63;5049915;28;20035;-72
2022/06/11 06:56:43;;;;;;;7.32;4.15;;;;;;;15.02;100.00;90566.91;5050295;28;20033;-72
2022/06/11 06:59:08;;;;;;;6.20;4.38;;;;;;;14.88;100.00;90571.88;5050267;28;20021;-71
2022/06/11 07:01:34;;;;;;;7.53;4.05;;;;;;;14.80;100.00;90578.94;5050104;28;20035;-71
2022/06/11 07:03:59;;;;;;;7.78;3.90;;;;;;;14.70;100.00;90576.78;5050537;28;20486;-72
2022/06/11 07:06:25;;;;;;;6.63;3.97;;;;;;;14.82;100.00;90574.00;5050079;28;20063;-71
2022/06/11 07:08:53;;;;;;;8.70;4.50;;;;;;;14.98;100.00;90571.38;5050021;28;20029;-71
2022/06/11 07:11:19;;;;;;;6.32;4.07;;;;;;;14.82;100.00;90581.28;5050231;28;20035;-72
2022/06/11 07:13:45;;;;;;;6.80;4.40;;;;;;;14.78;100.00;90567.00;5050314;28;20457;-73
2022/06/11 07:16:14;;;;;;;6.72;3.75;;;;;;;14.83;100.00;90580.94;5048931;28;20025;-72
2022/06/11 07:18:44;;;;;;;5.75;4.00;;;;;;;14.82;100.00;90579.38;5050134;28;20040;-72
2022/06/11 07:21:16;;;;;;;5.80;4.00;;;;;;;15.09;100.00;90585.03;5052103;28;20045;-72
2022/06/11 07:23:55;;;;;;;7.95;4.25;;;;;;;15.30;100.00;90577.53;5053493;28;20105;-72
2022/06/11 07:26:27;;;;;;;5.88;4.05;;;;;;;15.35;100.00;90576.53;5053761;28;20028;-73
2022/06/11 07:29:01;;;;;;;5.32;3.03;;;;;;;15.43;100.00;90578.25;5054016;28;20025;-72
2022/06/11 07:31:31;;;;;;;6.65;3.38;;;;;;;15.42;100.00;90569.41;5053631;28;20025;-72
2022/06/11 07:33:57;;;;;;;4.38;3.28;;;;;;;15.52;100.00;90584.22;5062825;28;20052;-71
2022/06/11 07:36:25;;;;;;;4.78;3.47;;;;;;;15.56;100.00;90590.44;5073152;28;20032;-68
2022/06/11 07:38:50;;;;;;;6.10;3.80;;;;;;;15.66;100.00;90579.22;5072487;28;20067;-71
2022/06/11 07:41:16;;;;;;;6.00;3.75;;;;;;;15.75;100.00;90582.47;5073287;28;20049;-71
2022/06/11 07:43:41;;;;;;;8.40;4.00;;;;;;;15.86;100.00;90588.88;5072800;28;20079;-69
2022/06/11 07:46:07;;;;;;;6.57;4.10;;;;;;;15.87;100.00;90585.06;5073202;28;20029;-70
2022/06/11 07:48:32;;;;;;;5.63;3.88;;;;;;;16.15;100.00;90584.16;5073064;28;20403;-71
2022/06/11 07:50:58;;;;;;;6.05;4.00;;;;;;;16.24;100.00;90582.03;5073164;28;20032;-72
2022/06/11 07:53:24;;;;;;;6.90;4.05;;;;;;;16.38;100.00;90578.88;5072830;28;20107;-72
2022/06/11 07:55:52;;;;;;;5.10;3.72;;;;;;;16.54;100.00;90581.50;5073295;28;20110;-70
2022/06/11 07:58:22;;;;;;;6.72;3.75;;;;;;;16.65;100.00;90585.97;5071193;28;20028;-71
2022/06/11 08:00:51;;;;;;;5.82;3.53;;;;;;;16.87;100.00;90584.50;5072404;28;20029;-72
2022/06/11 08:03:18;;;;;;;6.28;4.53;;;;;;;16.65;100.00;90579.81;5072402;28;20036;-69
2022/06/11 08:05:44;;;;;;;6.82;4.60;;;;;;;16.68;100.00;90581.81;5072862;28;20413;-69
2022/06/11 08:08:11;;;;;;;7.32;4.57;;;;;;;16.66;100.00;90581.38;5071927;28;20054;-70
2022/06/11 08:10:39;;;;;;;8.23;4.95;;;;;;;16.74;100.00;90583.91;5072866;28;20406;-71
2022/06/11 08:13:05;;;;;;;6.60;5.00;;;;;;;16.79;100.00;90579.38;5072674;28;20024;-71
2022/06/11 08:15:32;;;;;;;7.70;5.13;;;;;;;16.81;100.00;90580.56;5072771;28;20028;-71
2022/06/11 08:17:58;;;;;;;7.90;5.30;;;;;;;16.65;100.00;90577.91;5072188;28;20017;-69
2022/06/11 08:20:28;;;;;;;8.18;4.63;;;;;;;16.54;100.00;90570.78;5072419;28;20031;-70
2022/06/11 08:22:54;;;;;;;8.55;5.13;;;;;;;16.85;100.00;90553.75;5071716;28;20048;-69
2022/06/11 08:25:21;;;;;;;6.65;4.43;;;;;;;17.15;100.00;90578.88;5072637;28;20036;-69
2022/06/11 08:27:47;;;;;;;7.95;4.38;;;;;;;17.38;100.00;90586.22;5071835;28;20028;-68
2022/06/11 08:30:15;;;;;;;6.90;5.25;;;;;;;17.59;100.00;90579.28;5072484;28;20456;-69
2022/06/11 08:32:40;;;;;;;8.15;4.95;;;;;;;18.08;100.00;90572.38;5071365;28;20028;-69
2022/06/11 08:35:06;;;;;;;8.15;5.70;;;;;;;18.11;100.00;90575.09;5072561;28;20028;-69
2022/06/11 08:37:32;;;;;;;10.75;5.38;;;;;;;18.29;100.00;90574.56;5072122;28;20025;-69
2022/06/11 08:39:57;;;;;;;7.40;5.07;;;;;;;18.41;100.00;90579.75;5072444;28;20028;-68
2022/06/11 08:42:36;;;;;;;8.00;4.78;;;;;;;18.16;100.00;90588.28;5072288;28;20032;-70
2022/06/11 08:45:20;;;;;;;8.82;5.82;;;;;;;17.48;100.00;90583.69;5072279;28;20024;-69
2022/06/11 08:47:51;;;;;;;11.57;6.35;;;;;;;17.38;100.00;90584.31;5072232;28;20116;-72
2022/06/11 08:50:23;;;;;;;10.15;5.88;;;;;;;17.47;100.00;90576.75;5072394;28;20044;-71
2022/06/11 08:52:50;;;;;;;11.10;6.13;;;;;;;17.96;100.00;90584.88;5069112;28;20043;-69
2022/06/11 08:55:18;;;;;;;9.13;5.22;;;;;;;18.64;100.00;90577.03;5072033;28;20024;-69
2022/06/11 08:57:55;;;;;;;9.10;5.25;;;;;;;18.26;100.00;90568.78;5071395;28;20028;-69
2022/06/11 09:00:24;;;;;;;9.50;4.85;;;;;;;17.81;100.00;90585.03;5071895;28;20526;-68
2022/06/11 09:03:05;;;;;;;9.23;5.13;;;;;;;20.21;100.00;90579.34;5071076;28;20036;-69
2022/06/11 09:05:40;;;;;;;7.10;4.45;;;;;;;23.12;98.01;90571.00;5074566;28;20052;-67
2022/06/11 09:08:30;;;;;;;6.20;4.05;;;;;;;22.91;84.98;90571.88;5071339;28;20032;-68
2022/06/11 09:11:12;;;;;;;5.95;3.80;;;;;;;24.02;80.91;90577.53;5073952;28;20029;-68
2022/06/11 09:13:58;;;;;;;4.95;3.75;;;;;;;25.83;74.49;90574.13;5071373;28;20024;-69
2022/06/11 09:16:57;;;;;;;5.00;3.58;;;;;;;26.01;61.78;90582.81;5070588;28;20040;-70
2022/06/11 09:19:47;;;;;;;5.07;3.75;;;;;;;23.75;71.37;90579.25;5070326;28;20024;-67
2022/06/11 09:22:29;;;;;;;4.95;4.07;;;;;;;21.93;87.05;90584.28;5070347;28;20035;-68
2022/06/11 09:25:26;;;;;;;5.53;4.07;;;;;;;20.99;98.34;90570.91;5071327;28;20037;-67
2022/06/11 09:28:10;;;;;;;4.70;3.60;;;;;;;20.75;100.00;90575.84;5036688;28;20121;-68
2022/06/11 09:30:47;;;;;;;6.22;3.85;;;;;;;20.07;100.00;90573.84;5071215;28;20032;-67
2022/06/11 09:33:31;;;;;;;6.30;4.70;;;;;;;19.72;100.00;90581.28;5071234;28;20119;-68
2022/06/11 09:35:59;;;;;;;;;;;;;;;19.82;100.00;90581.75;5071604;28;20105;-68
2022/06/11 09:38:40;;;;;;;6.07;4.05;;;;;;;20.05;100.00;90587.72;5070218;28;19958;-67
2022/06/11 09:41:14;;;;;;;6.63;3.95;;;;;;;19.41;100.00;90579.03;5070992;28;20032;-67
2022/06/11 09:43:58;;;;;;;5.22;3.83;;;;;;;19.03;100.00;90577.47;5070886;28;20115;-67
2022/06/11 09:46:35;;;;;;;6.65;4.68;;;;;;;19.13;100.00;90585.69;5069772;28;20039;-68
2022/06/11 09:49:22;;;;;;;5.28;4.25;;;;;;;19.35;100.00;90581.28;5071076;28;20036;-68
2022/06/11 09:52:05;;;;;;;6.10;3.95;;;;;;;20.06;100.00;90583.09;5070624;28;20060;-68
2022/06/11 09:54:46;;;;;;;4.50;3.40;;;;;;;21.67;100.00;90590.84;5068449;28;20055;-68
2022/06/11 09:57:26;;;;;;;6.93;4.45;;;;;;;22.35;91.15;90584.31;5069813;28;20025;-67
2022/06/11 10:00:02;;;;;;;4.70;3.58;;;;;;;23.13;83.73;90583.41;5070282;28;20494;-68
2022/06/11 10:03:10;;;;;;;2.75;2.30;;;;;;;23.36;74.55;90588.34;5070479;28;20094;-68
2022/06/11 10:05:55;;;;;;;4.18;3.35;;;;;;;22.28;82.24;90587.06;5059257;28;20056;-67
2022/06/11 10:08:38;;;;;;;6.13;3.95;;;;;;;23.68;85.55;90587.44;5049953;28;20032;-63
2022/06/11 10:11:10;;;;;;;3.03;2.58;;;;;;;25.89;65.78;90597.03;5050813;28;20032;-63
2022/06/11 10:13:45;;;;;;;2.65;2.33;;;;;;;27.05;62.68;90610.03;5050665;28;20079;-63
2022/06/11 10:16:37;;;;;;;2.85;2.28;;;;;;;27.13;58.13;90605.97;5050109;28;20033;-63
2022/06/11 10:19:30;;;;;;;3.03;1.95;;;;;;;27.51;56.53;90592.00;5032507;28;20036;-64
2022/06/11 10:22:06;;;;;;;2.40;2.20;;;;;;;28.02;59.79;90601.50;5050147;28;20517;-63
2022/06/11 10:24:35;;;;;;;2.15;1.70;;;;;;;28.71;52.35;90593.28;5050296;28;20380;-63
2022/06/11 10:27:13;;;;;;;2.45;2.25;;;;;;;27.80;58.28;90592.22;5046920;28;20044;-64
2022/06/11 10:29:48;;;;;;;4.95;2.60;;;;;;;28.04;58.70;90596.34;5050227;28;20067;-63
2022/06/11 10:32:26;;;;;;;1.60;1.50;;;;;;;28.16;53.17;90600.41;5049822;28;20028;-63
2022/06/11 10:35:20;;;;;;;3.50;2.47;;;;;;;27.89;58.69;90600.59;5045375;28;20044;-65
2022/06/11 10:38:04;;;;;;;2.85;1.92;;;;;;;26.30;60.53;90598.75;5004443;28;20139;-69
2022/06/11 10:40:39;;;;;;;1.85;1.60;;;;;;;25.45;55.69;90596.00;5030582;28;20041;-68
2022/06/11 10:43:16;;;;;;;2.38;1.95;;;;;;;24.82;59.95;90594.75;5030501;28;20496;-69
2022/06/11 10:45:43;;;;;;;1.90;1.80;;;;;;;25.66;60.33;90605.84;5009554;28;20049;-69
2022/06/11 10:48:21;;;;;;;2.05;1.83;;;;;;;26.05;57.75;90604.59;5030122;28;20049;-68
2022/06/11 10:50:48;;;;;;;2.42;1.67;;;;;;;25.83;58.80;90604.88;5030105;28;20029;-68
2022/06/11 10:53:13;;;;;;;2.53;2.15;;;;;;;26.01;61.70;90601.13;5012523;28;20048;-68
2022/06/11 10:55:48;;;;;;;2.65;1.92;;;;;;;26.11;58.98;90594.75;5027841;28;20882;-68
2022/06/11 10:58:33;;;;;;;2.08;1.80;;;;;;;26.21;57.09;90602.78;5034165;28;20104;-68
2022/06/11 11:01:06;;;;;;;2.53;1.80;;;;;;;25.55;60.02;90603.25;5034012;28;20404;-68
2022/06/11 11:03:43;;;;;;;2.38;2.00;;;;;;;26.03;59.38;90604.22;5033950;28;20035;-68
2022/06/11 11:06:17;;;;;;;2.40;2.20;;;;;;;27.56;58.53;90593.47;5047841;28;20049;-68
2022/06/11 11:08:55;;;;;;;2.50;2.10;;;;;;;29.34;52.77;90598.34;5053853;28;20759;-68
2022/06/11 11:11:21;;;;;;;2.15;1.95;;;;;;;30.23;52.59;90590.38;5053801;28;20105;-68
2022/06/11 11:13:48;;;;;;;2.58;2.03;;;;;;;30.46;50.43;90586.56;5053748;28;20546;-68
2022/06/11 11:16:15;;;;;;;1.77;1.60;;;;;;;28.79;50.84;90593.88;5053283;28;20029;-68
2022/06/11 11:18:53;;;;;;;2.20;1.80;;;;;;;26.80;55.25;90588.59;5054028;28;20029;-68
2022/06/11 11:21:40;;;;;;;3.58;2.22;;;;;;;25.96;59.75;90581.34;5053305;28;20033;-68
2022/06/11 11:24:16;;;;;;;2.78;2.28;;;;;;;26.23;61.45;90583.28;5053684;28;20025;-67
2022/06/11 11:26:48;;;;;;;2.58;1.90;;;;;;;27.63;56.61;90583.19;5053282;28;20403;-68
2022/06/11 11:29:21;;;;;;;2.80;1.90;;;;;;;27.96;54.73;90572.34;5053611;28;20025;-67
2022/06/11 11:31:57;;;;;;;2.20;2.00;;;;;;;27.43;55.10;90574.19;5053460;28;21259;-68
2022/06/11 11:34:29;;;;;;;3.80;2.10;;;;;;;27.77;57.32;90564.94;5052981;28;20514;-68
2022/06/11 11:37:19;;;;;;;3.05;2.35;;;;;;;27.64;54.88;90565.59;5053252;28;20025;-67
2022/06/11 11:39:58;;;;;;;4.13;2.08;;;;;;;28.05;54.60;90572.53;5052880;28;20450;-68
2022/06/11 11:42:29;;;;;;;2.85;2.20;;;;;;;26.56;55.66;90571.47;5053240;28;20028;-68
2022/06/11 11:44:57;;;;;;;3.00;2.10;;;;;;;24.52;59.72;90574.41;5052852;28;20082;-67
2022/06/11 11:47:25;;;;;;;2.15;1.92;;;;;;;23.35;63.17;90567.78;5053143;28;20043;-68
2022/06/11 11:50:02;;;;;;;3.55;2.10;;;;;;;24.65;62.85;90571.97;5053174;28;20033;-68